Time;durP1;ratioP1;P1;durP2;ratioP2;P2;SDS_P1;SDS_P2;PMS_P1;PMS_P2;Temp;Humidity;BMP_temperature;BMP_pressure;BME280_temperature;BME280_humidity;BME280_pressure;Samples;Min_cycle;Max_cycle;Signal;HPM_P1;HPM_P2
2023/03/16 00:02:10;;;;;;;10.38;3.63;;;;;;;;;;5027727;28;20021;-59
2023/03/16 00:04:36;;;;;;;10.07;3.63;;;;;;;;;;5025606;28;20025;-60
2023/03/16 00:07:06;;;;;;;9.15;3.70;;;;;;;;;;5029630;28;20075;-61
2023/03/16 00:09:32;;;;;;;8.93;3.80;;;;;;;;;;5030982;28;20029;-60
2023/03/16 00:11:58;;;;;;;10.43;4.00;;;;;;;;;;5030025;28;20627;-60
2023/03/16 00:14:25;;;;;;;8.52;3.63;;;;;;;;;;5028350;28;20041;-60
2023/03/16 00:16:50;;;;;;;7.75;3.88;;;;;;;;;;5010098;28;20032;-61
2023/03/16 00:19:16;;;;;;;8.50;3.42;;;;;;;;;;5030709;28;20378;-60
2023/03/16 00:21:41;;;;;;;11.95;4.20;;;;;;;;;;5011242;28;20076;-61
2023/03/16 00:24:09;;;;;;;9.30;3.97;;;;;;;;;;5028782;28;20095;-60
2023/03/16 00:26:34;;;;;;;7.55;3.50;;;;;;;;;;5013100;28;20042;-61
2023/03/16 00:29:00;;;;;;;7.40;3.00;;;;;;;;;;5034311;28;20042;-61
2023/03/16 00:31:26;;;;;;;8.88;3.30;;;;;;;;;;5028321;28;20083;-61
2023/03/16 00:33:51;;;;;;;9.93;3.35;;;;;;;;;;5024475;28;20033;-60
2023/03/16 00:36:17;;;;;;;9.02;3.42;;;;;;;;;;5028931;28;20091;-60
2023/03/16 00:38:45;;;;;;;8.27;3.30;;;;;;;;;;5030082;28;20091;-60
2023/03/16 00:41:15;;;;;;;9.40;3.33;;;;;;;;;;5028610;28;20597;-60
2023/03/16 00:43:43;;;;;;;8.63;3.50;;;;;;;;;;5028817;28;20096;-61
2023/03/16 00:46:11;;;;;;;7.05;3.20;;;;;;;;;;5028373;28;20065;-60
2023/03/16 00:48:41;;;;;;;6.20;3.42;;;;;;;;;;5023841;28;20088;-60
2023/03/16 00:51:08;;;;;;;9.32;3.58;;;;;;;;;;5028892;28;20026;-61
2023/03/16 00:53:35;;;;;;;6.30;3.10;;;;;;;;;;5028413;28;20076;-61
2023/03/16 00:56:03;;;;;;;6.90;3.50;;;;;;;;;;5029378;28;20041;-61
2023/03/16 00:58:34;;;;;;;8.45;3.08;;;;;;;;;;5029388;28;20026;-60
2023/03/16 01:01:02;;;;;;;7.15;3.20;;;;;;;;;;5028731;28;20395;-60
2023/03/16 01:03:28;;;;;;;8.40;3.30;;;;;;;;;;5031501;28;20034;-61
2023/03/16 01:05:58;;;;;;;6.68;3.20;;;;;;;;;;5030046;28;20099;-60
2023/03/16 01:08:24;;;;;;;9.38;3.30;;;;;;;;;;5034066;28;20037;-60
2023/03/16 01:10:49;;;;;;;6.50;3.00;;;;;;;;;;5033731;28;20592;-60
2023/03/16 01:13:15;;;;;;;8.40;2.97;;;;;;;;;;5033384;28;20033;-60
2023/03/16 01:15:40;;;;;;;5.65;2.88;;;;;;;;;;5043282;28;20033;-61
2023/03/16 01:18:06;;;;;;;7.10;3.00;;;;;;;;;;5031812;28;20091;-61
2023/03/16 01:20:32;;;;;;;7.75;3.05;;;;;;;;;;5032744;28;20018;-60
2023/03/16 01:22:57;;;;;;;6.47;3.08;;;;;;;;;;5032817;28;20493;-60
2023/03/16 01:25:23;;;;;;;7.15;3.10;;;;;;;;;;5015554;28;20033;-60
2023/03/16 01:27:49;;;;;;;7.60;3.35;;;;;;;;;;5033092;28;20474;-60
2023/03/16 01:30:14;;;;;;;7.28;3.10;;;;;;;;;;5032256;28;20652;-60
2023/03/16 01:32:40;;;;;;;6.88;3.08;;;;;;;;;;5031389;28;20037;-60
2023/03/16 01:35:06;;;;;;;5.95;3.03;;;;;;;;;;5031981;28;20044;-61
2023/03/16 01:37:32;;;;;;;9.73;3.00;;;;;;;;;;5031951;28;20462;-60
2023/03/16 01:39:57;;;;;;;8.77;3.30;;;;;;;;;;5031761;28;20044;-61
2023/03/16 01:42:23;;;;;;;7.20;3.03;;;;;;;;;;5012275;28;20080;-61
2023/03/16 01:45:00;;;;;;;6.68;3.13;;;;;;;;;;5023240;28;20538;-61
2023/03/16 01:47:26;;;;;;;6.65;3.10;;;;;;;;;;5033043;28;20105;-60
2023/03/16 01:49:54;;;;;;;11.05;3.65;;;;;;;;;;5033135;28;20120;-60
2023/03/16 01:52:24;;;;;;;6.72;2.78;;;;;;;;;;5030500;28;20075;-61
2023/03/16 01:54:54;;;;;;;6.40;2.70;;;;;;;;;;5020284;28;20037;-60
2023/03/16 01:57:23;;;;;;;5.95;3.08;;;;;;;;;;5032521;28;20471;-61
2023/03/16 02:00:09;;;;;;;8.65;2.90;;;;;;;;;;5030416;28;20072;-61
2023/03/16 02:02:38;;;;;;;7.30;3.33;;;;;;;;;;5033590;28;20033;-60
2023/03/16 02:05:19;;;;;;;6.47;3.15;;;;;;;;;;5029990;28;20033;-61
2023/03/16 02:07:49;;;;;;;4.78;2.88;;;;;;;;;;5032518;28;20029;-60
2023/03/16 02:10:17;;;;;;;11.68;3.30;;;;;;;;;;5031870;28;20121;-61
2023/03/16 02:12:43;;;;;;;7.05;3.10;;;;;;;;;;5031194;28;20033;-60
2023/03/16 02:15:10;;;;;;;9.23;2.67;;;;;;;;;;5029452;28;20029;-61
2023/03/16 02:17:36;;;;;;;6.72;2.65;;;;;;;;;;5015124;28;20037;-60
2023/03/16 02:20:17;;;;;;;5.00;2.55;;;;;;;;;;5030209;28;20076;-61
2023/03/16 02:22:47;;;;;;;5.93;2.88;;;;;;;;;;5033016;28;20559;-61
2023/03/16 02:25:17;;;;;;;7.15;2.90;;;;;;;;;;5031337;28;20045;-60
2023/03/16 02:28:30;;;;;;;7.15;2.78;;;;;;;;;;5043089;28;20068;-60
2023/03/16 02:30:56;;;;;;;4.78;2.45;;;;;;;;;;4952281;29;20043;-61
2023/03/16 02:33:22;;;;;;;6.35;2.90;;;;;;;;;;4935357;29;20117;-60
2023/03/16 02:35:47;;;;;;;5.35;2.78;;;;;;;;;;4987644;28;20037;-61
2023/03/16 02:38:13;;;;;;;5.07;2.80;;;;;;;;;;5030535;28;20037;-60
2023/03/16 02:40:38;;;;;;;5.75;2.78;;;;;;;;;;5031716;28;20029;-61
2023/03/16 02:43:15;;;;;;;6.28;2.63;;;;;;;;;;5031670;28;20061;-61
2023/03/16 02:45:44;;;;;;;5.50;2.40;;;;;;;;;;5029640;28;20057;-61
2023/03/16 02:48:16;;;;;;;3.90;2.10;;;;;;;;;;5030477;28;20041;-60
2023/03/16 02:50:45;;;;;;;6.65;2.50;;;;;;;;;;5033315;28;20037;-60
2023/03/16 02:53:11;;;;;;;8.50;2.83;;;;;;;;;;5031523;28;20037;-61
2023/03/16 02:55:37;;;;;;;8.00;2.50;;;;;;;;;;5034327;28;20478;-60
2023/03/16 02:58:02;;;;;;;4.50;2.45;;;;;;;;;;5033115;28;20053;-60
2023/03/16 03:00:28;;;;;;;6.82;2.50;;;;;;;;;;5035408;28;20033;-60
2023/03/16 03:02:54;;;;;;;6.85;2.47;;;;;;;;;;5052821;28;20028;-61
2023/03/16 03:05:20;;;;;;;4.93;2.40;;;;;;;;;;5032014;28;20128;-60
2023/03/16 03:07:46;;;;;;;4.38;2.50;;;;;;;;;;5030440;28;20072;-60
2023/03/16 03:10:11;;;;;;;5.60;2.42;;;;;;;;;;5030321;28;20472;-60
2023/03/16 03:12:37;;;;;;;3.85;2.38;;;;;;;;;;5030937;28;20090;-60
2023/03/16 03:15:03;;;;;;;5.05;2.40;;;;;;;;;;5030116;28;20375;-60
2023/03/16 03:17:31;;;;;;;7.38;2.67;;;;;;;;;;5030373;28;20025;-60
2023/03/16 03:19:59;;;;;;;6.63;2.40;;;;;;;;;;5030563;28;20113;-60
2023/03/16 03:22:25;;;;;;;3.90;2.20;;;;;;;;;;5030354;28;20048;-60
2023/03/16 03:24:52;;;;;;;11.55;2.78;;;;;;;;;;5030652;28;20104;-59
2023/03/16 03:27:18;;;;;;;4.00;2.45;;;;;;;;;;5030667;28;20029;-60
2023/03/16 03:29:43;;;;;;;5.60;2.30;;;;;;;;;;5029349;28;20029;-60
2023/03/16 03:32:09;;;;;;;4.35;2.33;;;;;;;;;;5030084;28;20083;-60
2023/03/16 03:34:36;;;;;;;4.97;2.35;;;;;;;;;;5031623;28;20033;-60
2023/03/16 03:37:01;;;;;;;4.88;2.45;;;;;;;;;;5049046;28;20405;-60
2023/03/16 03:39:27;;;;;;;6.38;2.30;;;;;;;;;;5031234;28;20040;-59
2023/03/16 03:41:53;;;;;;;4.50;2.30;;;;;;;;;;5029958;28;20045;-60
2023/03/16 03:44:20;;;;;;;5.18;2.20;;;;;;;;;;5028886;28;20022;-60
2023/03/16 03:46:46;;;;;;;6.53;2.58;;;;;;;;;;5030755;28;20041;-59
2023/03/16 03:49:13;;;;;;;5.50;2.30;;;;;;;;;;5016623;28;20094;-60
2023/03/16 03:51:40;;;;;;;4.15;2.30;;;;;;;;;;5035880;28;20105;-60
2023/03/16 03:54:05;;;;;;;7.22;2.70;;;;;;;;;;5029091;28;20064;-60
2023/03/16 03:56:31;;;;;;;5.80;2.88;;;;;;;;;;5011746;28;20470;-60
2023/03/16 03:58:56;;;;;;;6.05;2.28;;;;;;;;;;5030892;28;20458;-60
2023/03/16 04:01:22;;;;;;;5.18;2.40;;;;;;;;;;5030339;28;20036;-60
2023/03/16 04:03:47;;;;;;;5.30;2.38;;;;;;;;;;5030358;28;20037;-61
2023/03/16 04:06:13;;;;;;;6.75;2.75;;;;;;;;;;5027112;28;20052;-61
2023/03/16 04:08:38;;;;;;;6.15;2.60;;;;;;;;;;5029177;28;20044;-61
2023/03/16 04:11:04;;;;;;;4.97;2.42;;;;;;;;;;5031656;28;20045;-61
2023/03/16 04:13:29;;;;;;;3.90;1.92;;;;;;;;;;5035003;28;20034;-61
2023/03/16 04:15:57;;;;;;;4.13;2.17;;;;;;;;;;5029072;28;20037;-61
2023/03/16 04:18:22;;;;;;;6.13;2.58;;;;;;;;;;5028854;28;20025;-61
2023/03/16 04:20:48;;;;;;;4.22;2.35;;;;;;;;;;5025543;28;20080;-61
2023/03/16 04:23:15;;;;;;;6.07;2.30;;;;;;;;;;5030113;28;20124;-61
2023/03/16 04:25:41;;;;;;;5.72;2.15;;;;;;;;;;5023831;28;20032;-61
2023/03/16 04:28:06;;;;;;;6.60;2.40;;;;;;;;;;5027315;28;20029;-61
2023/03/16 04:30:33;;;;;;;4.22;2.00;;;;;;;;;;5030289;28;20045;-60
2023/03/16 04:32:59;;;;;;;4.70;2.50;;;;;;;;;;5030739;28;20125;-60
2023/03/16 04:35:25;;;;;;;7.32;3.47;;;;;;;;;;5028968;28;20582;-62
2023/03/16 04:37:50;;;;;;;5.20;2.40;;;;;;;;;;5029095;28;20030;-61
2023/03/16 04:40:16;;;;;;;5.60;2.45;;;;;;;;;;5033350;28;20393;-61
2023/03/16 04:42:43;;;;;;;5.78;2.42;;;;;;;;;;5033147;28;20462;-61
2023/03/16 04:45:09;;;;;;;5.63;2.22;;;;;;;;;;5032025;28;20505;-61
2023/03/16 04:47:36;;;;;;;4.15;2.17;;;;;;;;;;5038941;28;20397;-60
2023/03/16 04:50:02;;;;;;;4.53;2.15;;;;;;;;;;5023040;28;20117;-60
2023/03/16 04:52:29;;;;;;;5.40;2.55;;;;;;;;;;5018443;28;20033;-60
2023/03/16 04:54:55;;;;;;;4.28;2.15;;;;;;;;;;5033301;28;20539;-60
2023/03/16 04:57:21;;;;;;;5.65;2.63;;;;;;;;;;5032278;28;20029;-61
2023/03/16 04:59:47;;;;;;;6.13;2.40;;;;;;;;;;5034201;28;20489;-60
2023/03/16 05:02:13;;;;;;;4.30;2.20;;;;;;;;;;5031429;28;20046;-61
2023/03/16 05:04:38;;;;;;;4.05;2.42;;;;;;;;;;5033531;28;20401;-61
2023/03/16 05:07:04;;;;;;;5.28;2.58;;;;;;;;;;5034085;28;20037;-60
2023/03/16 05:09:29;;;;;;;5.50;2.25;;;;;;;;;;5032052;28;20106;-61
2023/03/16 05:11:55;;;;;;;4.55;2.33;;;;;;;;;;5032121;28;20048;-61
2023/03/16 05:14:20;;;;;;;4.38;2.33;;;;;;;;;;5032776;28;20029;-59
2023/03/16 05:16:45;;;;;;;4.40;2.47;;;;;;;;;;5034072;28;20092;-60
2023/03/16 05:19:11;;;;;;;5.57;2.53;;;;;;;;;;5033131;28;20513;-60
2023/03/16 05:21:37;;;;;;;4.90;2.03;;;;;;;;;;5033446;28;20116;-60
2023/03/16 05:24:07;;;;;;;4.47;2.50;;;;;;;;;;5033261;28;20081;-61
2023/03/16 05:26:32;;;;;;;5.85;2.50;;;;;;;;;;4999732;28;20053;-61
2023/03/16 05:28:58;;;;;;;5.55;2.78;;;;;;;;;;5028949;28;20065;-60
2023/03/16 05:31:31;;;;;;;7.90;2.90;;;;;;;;;;5013491;28;20470;-60
2023/03/16 05:33:56;;;;;;;5.80;2.67;;;;;;;;;;5030203;28;20524;-59
2023/03/16 05:36:23;;;;;;;6.18;2.58;;;;;;;;;;5022185;28;20037;-60
2023/03/16 05:38:49;;;;;;;5.47;2.78;;;;;;;;;;5034173;28;20030;-61
2023/03/16 05:41:17;;;;;;;5.38;2.80;;;;;;;;;;5033607;28;20029;-60
2023/03/16 05:43:43;;;;;;;6.07;3.25;;;;;;;;;;5035119;28;20487;-59
2023/03/16 05:46:08;;;;;;;6.80;3.05;;;;;;;;;;5054171;28;20049;-59
2023/03/16 05:48:36;;;;;;;5.38;2.83;;;;;;;;;;5051382;28;20057;-60
2023/03/16 05:51:05;;;;;;;7.55;3.15;;;;;;;;;;5032562;28;20446;-60
2023/03/16 05:53:34;;;;;;;7.03;3.50;;;;;;;;;;5032921;28;20124;-60
2023/03/16 05:56:00;;;;;;;5.65;2.83;;;;;;;;;;5033600;28;20044;-60
2023/03/16 05:58:25;;;;;;;6.82;3.38;;;;;;;;;;5030761;28;20413;-60
2023/03/16 06:00:51;;;;;;;6.78;2.95;;;;;;;;;;5033859;28;20424;-61
2023/03/16 06:03:16;;;;;;;9.05;3.20;;;;;;;;;;5032455;28;20037;-61
2023/03/16 06:05:42;;;;;;;6.85;3.40;;;;;;;;;;5033764;28;20108;-61
2023/03/16 06:08:08;;;;;;;6.13;3.22;;;;;;;;;;5039835;28;20039;-63
2023/03/16 06:10:34;;;;;;;6.70;3.40;;;;;;;;;;5046704;28;20030;-62
2023/03/16 06:13:00;;;;;;;6.28;3.42;;;;;;;;;;5033698;28;20040;-63
2023/03/16 06:15:29;;;;;;;6.32;3.63;;;;;;;;;;5029901;28;20045;-64
2023/03/16 06:17:54;;;;;;;7.47;3.50;;;;;;;;;;5032318;28;20026;-64
2023/03/16 06:20:20;;;;;;;6.38;3.20;;;;;;;;;;5010162;28;20074;-63
2023/03/16 06:22:46;;;;;;;7.25;3.50;;;;;;;;;;5035414;28;20382;-64
2023/03/16 06:25:12;;;;;;;6.68;3.50;;;;;;;;;;5032854;28;20033;-64
2023/03/16 06:27:38;;;;;;;6.60;3.78;;;;;;;;;;5032295;28;20029;-62
2023/03/16 06:30:05;;;;;;;7.10;3.60;;;;;;;;;;5032965;28;20034;-65
2023/03/16 06:32:31;;;;;;;6.68;3.40;;;;;;;;;;5030912;28;20029;-63
2023/03/16 06:34:58;;;;;;;7.20;3.70;;;;;;;;;;5033551;28;20052;-64
2023/03/16 06:37:24;;;;;;;7.53;3.40;;;;;;;;;;5012409;28;20116;-64
2023/03/16 06:39:49;;;;;;;7.85;3.28;;;;;;;;;;5029243;28;20169;-63
2023/03/16 06:42:14;;;;;;;7.40;3.50;;;;;;;;;;5032357;28;20386;-64
2023/03/16 06:44:40;;;;;;;5.88;3.20;;;;;;;;;;5031921;28;20052;-64
2023/03/16 06:47:05;;;;;;;6.93;3.17;;;;;;;;;;5032610;28;20377;-63
2023/03/16 06:49:31;;;;;;;7.10;3.40;;;;;;;;;;5028138;28;20033;-63
2023/03/16 06:51:57;;;;;;;7.18;3.50;;;;;;;;;;5026371;28;20091;-61
2023/03/16 06:54:23;;;;;;;7.03;3.30;;;;;;;;;;5030414;28;20044;-62
2023/03/16 06:56:48;;;;;;;5.82;2.95;;;;;;;;;;5032306;28;20045;-62
2023/03/16 06:59:14;;;;;;;6.35;3.17;;;;;;;;;;5031934;28;20064;-62
2023/03/16 07:01:41;;;;;;;7.30;3.50;;;;;;;;;;5031966;28;20091;-64
2023/03/16 07:04:06;;;;;;;4.97;3.00;;;;;;;;;;5031298;28;20398;-62
2023/03/16 07:06:32;;;;;;;5.88;3.00;;;;;;;;;;5031328;28;20029;-64
2023/03/16 07:08:58;;;;;;;5.18;2.95;;;;;;;;;;5031461;28;20043;-62
2023/03/16 07:11:23;;;;;;;5.45;3.08;;;;;;;;;;5031583;28;20068;-62
2023/03/16 07:13:48;;;;;;;8.32;3.42;;;;;;;;;;5030645;28;20045;-63
2023/03/16 07:16:14;;;;;;;6.05;3.15;;;;;;;;;;5030731;28;20068;-62
2023/03/16 07:18:43;;;;;;;6.10;3.20;;;;;;;;;;5031302;28;20037;-61
2023/03/16 07:21:08;;;;;;;6.93;3.13;;;;;;;;;;5031456;28;20072;-62
2023/03/16 07:23:34;;;;;;;6.53;2.95;;;;;;;;;;5031392;28;20362;-62
2023/03/16 07:25:59;;;;;;;6.60;3.25;;;;;;;;;;5031987;28;20033;-62
2023/03/16 07:28:25;;;;;;;6.57;3.03;;;;;;;;;;5029391;28;20470;-62
2023/03/16 07:30:51;;;;;;;6.38;3.13;;;;;;;;;;5030414;28;20033;-60
2023/03/16 07:33:16;;;;;;;5.10;3.00;;;;;;;;;;5030514;28;20486;-63
2023/03/16 07:35:41;;;;;;;4.78;3.00;;;;;;;;;;5031793;28;20072;-61
2023/03/16 07:38:09;;;;;;;6.03;3.10;;;;;;;;;;5028698;28;20044;-61
2023/03/16 07:40:35;;;;;;;4.35;2.75;;;;;;;;;;5030203;28;20490;-62
2023/03/16 07:43:00;;;;;;;6.65;3.53;;;;;;;;;;5013323;28;20033;-63
2023/03/16 07:45:26;;;;;;;6.47;3.15;;;;;;;;;;5027669;28;20501;-64
2023/03/16 07:47:51;;;;;;;5.85;3.20;;;;;;;;;;5027894;28;20044;-63
2023/03/16 07:50:18;;;;;;;10.40;3.13;;;;;;;;;;5015440;28;20491;-63
2023/03/16 07:52:45;;;;;;;7.35;3.10;;;;;;;;;;5030344;28;20037;-65
2023/03/16 07:55:14;;;;;;;4.97;2.70;;;;;;;;;;5032751;28;20060;-62
2023/03/16 07:57:41;;;;;;;5.20;3.30;;;;;;;;;;5032286;28;20033;-66
2023/03/16 08:00:13;;;;;;;6.28;2.97;;;;;;;;;;5018051;28;20047;-64
2023/03/16 08:02:38;;;;;;;6.95;3.15;;;;;;;;;;5016319;28;20034;-63
2023/03/16 08:05:05;;;;;;;5.88;3.45;;;;;;;;;;5019203;28;20033;-64
2023/03/16 08:07:38;;;;;;;4.82;2.67;;;;;;;;;;5017479;28;20075;-63
2023/03/16 08:10:06;;;;;;;4.15;2.55;;;;;;;;;;5009512;28;20049;-65
2023/03/16 08:12:49;;;;;;;5.55;2.47;;;;;;;;;;5033784;28;20049;-64
2023/03/16 08:15:15;;;;;;;4.85;2.70;;;;;;;;;;5029982;28;20029;-63
2023/03/16 08:17:47;;;;;;;6.25;3.00;;;;;;;;;;5011409;28;20029;-66
2023/03/16 08:20:17;;;;;;;6.10;2.72;;;;;;;;;;5012444;28;20025;-64
2023/03/16 08:22:45;;;;;;;4.72;2.55;;;;;;;;;;5012888;28;20270;-64
2023/03/16 08:25:12;;;;;;;5.30;2.80;;;;;;;;;;5035321;28;20034;-64
2023/03/16 08:27:37;;;;;;;5.20;2.88;;;;;;;;;;5028564;28;20037;-64
2023/03/16 08:30:10;;;;;;;6.60;3.00;;;;;;;;;;5013492;28;20033;-62
2023/03/16 08:32:38;;;;;;;7.32;2.63;;;;;;;;;;5011730;28;20113;-65
2023/03/16 08:35:05;;;;;;;6.38;3.22;;;;;;;;;;5029525;28;20091;-65
2023/03/16 08:37:31;;;;;;;5.70;2.80;;;;;;;;;;5029565;28;20025;-63
2023/03/16 08:39:59;;;;;;;7.38;3.33;;;;;;;;;;5029791;28;20052;-64
2023/03/16 08:42:24;;;;;;;7.28;3.28;;;;;;;;;;5029750;28;20029;-62
2023/03/16 08:44:52;;;;;;;5.97;2.90;;;;;;;;;;5029634;28;20085;-66
2023/03/16 08:47:18;;;;;;;7.22;3.28;;;;;;;;;;5024867;28;20363;-65
2023/03/16 08:49:44;;;;;;;6.38;2.90;;;;;;;;;;5030273;28;20040;-65
2023/03/16 08:52:09;;;;;;;5.03;3.10;;;;;;;;;;5030028;28;20068;-63
2023/03/16 08:54:35;;;;;;;8.57;3.03;;;;;;;;;;5028029;28;20034;-62
2023/03/16 08:57:01;;;;;;;5.50;2.90;;;;;;;;;;5026575;28;20793;-64
2023/03/16 08:59:27;;;;;;;5.82;3.15;;;;;;;;;;5030144;28;20026;-64
2023/03/16 09:01:53;;;;;;;7.15;3.22;;;;;;;;;;5029745;28;20048;-63
2023/03/16 09:04:20;;;;;;;7.22;3.15;;;;;;;;;;5030681;28;20104;-62
2023/03/16 09:06:46;;;;;;;6.97;3.17;;;;;;;;;;5029231;28;20033;-63
2023/03/16 09:09:12;;;;;;;3.55;2.25;;;;;;;;;;5030496;28;20111;-62
2023/03/16 09:11:37;;;;;;;5.53;3.00;;;;;;;;;;5027917;28;20590;-63
2023/03/16 09:14:03;;;;;;;6.43;3.40;;;;;;;;;;5030789;28;20041;-63
2023/03/16 09:16:29;;;;;;;5.18;3.28;;;;;;;;;;5029058;28;20033;-64
2023/03/16 09:18:56;;;;;;;6.63;3.20;;;;;;;;;;5030701;28;20443;-63
2023/03/16 09:21:22;;;;;;;7.32;3.17;;;;;;;;;;5023976;28;20458;-62
2023/03/16 09:23:47;;;;;;;6.20;3.08;;;;;;;;;;5027658;28;20092;-66
2023/03/16 09:26:14;;;;;;;7.22;3.50;;;;;;;;;;5036425;28;20080;-63
2023/03/16 09:28:43;;;;;;;5.18;2.70;;;;;;;;;;5036939;28;20179;-66
2023/03/16 09:31:15;;;;;;;5.97;3.45;;;;;;;;;;5034725;28;20053;-62
2023/03/16 09:33:41;;;;;;;5.68;3.40;;;;;;;;;;5018883;28;20487;-65
2023/03/16 09:36:10;;;;;;;7.63;3.35;;;;;;;;;;5035141;28;20542;-65
2023/03/16 09:38:36;;;;;;;5.85;3.45;;;;;;;;;;5036172;28;20044;-65
2023/03/16 09:41:07;;;;;;;6.15;3.80;;;;;;;;;;5035844;28;20033;-63
2023/03/16 09:44:10;;;;;;;7.05;3.70;;;;;;;;;;5033620;28;20191;-62
2023/03/16 09:46:48;;;;;;;6.72;3.67;;;;;;;;;;5028307;28;20542;-65
2023/03/16 09:49:19;;;;;;;6.80;3.53;;;;;;;;;;5034212;28;20461;-66
2023/03/16 09:52:20;;;;;;;6.20;3.78;;;;;;;;;;5032853;28;20095;-64
2023/03/16 09:54:52;;;;;;;5.75;3.60;;;;;;;;;;5033826;28;20041;-64
2023/03/16 09:57:29;;;;;;;7.68;3.97;;;;;;;;;;5033463;28;20478;-62
2023/03/16 10:00:09;;;;;;;6.95;3.67;;;;;;;;;;5011039;28;20065;-62
2023/03/16 10:03:00;;;;;;;8.55;4.22;;;;;;;;;;5032946;28;20060;-64
2023/03/16 10:05:26;;;;;;;6.45;3.60;;;;;;;;;;5029344;28;20041;-65
2023/03/16 10:07:52;;;;;;;7.00;3.85;;;;;;;;;;5033203;28;20120;-63
2023/03/16 10:10:32;;;;;;;6.93;3.55;;;;;;;;;;5033351;28;20036;-63
2023/03/16 10:13:00;;;;;;;7.15;3.78;;;;;;;;;;5013881;28;20065;-63
2023/03/16 10:15:29;;;;;;;7.32;3.80;;;;;;;;;;5033219;28;20033;-63
2023/03/16 10:18:11;;;;;;;6.30;3.60;;;;;;;;;;5032289;28;20071;-64
2023/03/16 10:20:36;;;;;;;12.25;3.85;;;;;;;;;;5032528;28;20052;-63
2023/03/16 10:23:20;;;;;;;7.88;3.95;;;;;;;;;;5032366;28;20472;-64
2023/03/16 10:25:54;;;;;;;7.75;3.90;;;;;;;;;;5032341;28;20111;-63
2023/03/16 10:28:21;;;;;;;6.60;3.58;;;;;;;;;;5029172;28;20033;-66
2023/03/16 10:30:49;;;;;;;8.65;3.95;;;;;;;;;;5032072;28;20060;-63
2023/03/16 10:33:24;;;;;;;6.15;3.83;;;;;;;;;;5031384;28;20040;-66
2023/03/16 10:36:14;;;;;;;6.88;3.97;;;;;;;;;;5032265;28;20038;-65
2023/03/16 10:38:47;;;;;;;6.97;3.63;;;;;;;;;;5031885;28;20037;-66
2023/03/16 10:41:19;;;;;;;7.88;3.60;;;;;;;;;;5032518;28;20030;-64
2023/03/16 10:44:07;;;;;;;6.57;3.88;;;;;;;;;;5031874;28;20048;-62
2023/03/16 10:47:00;;;;;;;6.97;3.92;;;;;;;;;;5031477;28;20076;-62
2023/03/16 10:49:40;;;;;;;8.00;3.35;;;;;;;;;;5029191;28;20026;-66
2023/03/16 10:52:26;;;;;;;6.80;3.30;;;;;;;;;;5024887;28;20040;-62
2023/03/16 10:54:56;;;;;;;5.60;3.45;;;;;;;;;;5014218;28;20434;-63
2023/03/16 10:57:35;;;;;;;7.32;3.65;;;;;;;;;;5030754;28;20128;-62
2023/03/16 11:00:14;;;;;;;7.07;3.50;;;;;;;;;;5031070;28;20462;-64
2023/03/16 11:02:39;;;;;;;5.80;3.60;;;;;;;;;;5030307;28;20028;-63
2023/03/16 11:05:18;;;;;;;5.68;3.50;;;;;;;;;;5032249;28;20037;-63
2023/03/16 11:08:10;;;;;;;7.63;3.45;;;;;;;;;;5030790;28;20202;-63
2023/03/16 11:10:53;;;;;;;6.28;3.50;;;;;;;;;;5030968;28;20046;-64
2023/03/16 11:13:19;;;;;;;7.32;3.47;;;;;;;;;;5022325;28;20025;-61
2023/03/16 11:16:10;;;;;;;7.45;3.17;;;;;;;;;;5031425;28;20180;-64
2023/03/16 11:18:43;;;;;;;6.43;3.22;;;;;;;;;;5027544;28;20032;-63
2023/03/16 11:21:35;;;;;;;7.88;3.10;;;;;;;;;;5013638;28;20120;-64
2023/03/16 11:24:03;;;;;;;6.47;3.08;;;;;;;;;;5012419;28;20030;-65
2023/03/16 11:26:41;;;;;;;6.57;3.40;;;;;;;;;;5030008;28;20029;-62
2023/03/16 11:29:27;;;;;;;5.70;2.80;;;;;;;;;;5030528;28;20052;-61
2023/03/16 11:32:03;;;;;;;6.28;3.20;;;;;;;;;;5030258;28;20061;-61
2023/03/16 11:34:30;;;;;;;6.40;3.05;;;;;;;;;;5030602;28;20026;-61
2023/03/16 11:37:08;;;;;;;6.20;3.38;;;;;;;;;;5030024;28;20033;-62
2023/03/16 11:39:53;;;;;;;5.53;2.90;;;;;;;;;;5013025;28;20033;-63
2023/03/16 11:42:35;;;;;;;5.88;3.17;;;;;;;;;;5030621;28;20032;-64
2023/03/16 11:45:32;;;;;;;6.63;3.10;;;;;;;;;;5030764;28;21395;-63
2023/03/16 11:48:21;;;;;;;6.43;3.05;;;;;;;;;;5029127;28;20037;-61
2023/03/16 11:51:04;;;;;;;7.15;2.67;;;;;;;;;;5029466;28;20025;-62
2023/03/16 11:53:49;;;;;;;7.85;2.97;;;;;;;;;;5005011;28;20394;-62
2023/03/16 11:56:38;;;;;;;5.40;2.72;;;;;;;;;;5027910;28;20091;-61
2023/03/16 11:59:15;;;;;;;4.82;2.75;;;;;;;;;;5029989;28;20042;-62
2023/03/16 12:02:06;;;;;;;6.88;2.60;;;;;;;;;;5029226;28;20120;-61
2023/03/16 12:04:49;;;;;;;6.05;2.67;;;;;;;;;;5022549;28;20037;-63
2023/03/16 12:07:41;;;;;;;6.78;2.55;;;;;;;;;;5024867;28;20518;-63
2023/03/16 12:10:22;;;;;;;6.70;2.72;;;;;;;;;;5029169;28;20029;-62
2023/03/16 12:13:00;;;;;;;5.35;2.28;;;;;;;;;;5030304;28;20036;-62
2023/03/16 12:15:41;;;;;;;6.35;2.40;;;;;;;;;;5033372;28;20044;-62
2023/03/16 12:18:26;;;;;;;4.70;2.33;;;;;;;;;;5029889;28;20083;-63
2023/03/16 12:21:00;;;;;;;4.28;2.10;;;;;;;;;;5012030;28;20091;-65
2023/03/16 12:23:33;;;;;;;2.95;1.85;;;;;;;;;;5030599;28;20397;-62
2023/03/16 12:25:59;;;;;;;3.50;2.13;;;;;;;;;;5030338;28;20040;-62
2023/03/16 12:28:28;;;;;;;3.67;2.10;;;;;;;;;;5026510;28;20030;-64
2023/03/16 12:31:15;;;;;;;2.90;2.05;;;;;;;;;;5028566;28;20041;-62
2023/03/16 12:34:01;;;;;;;4.82;2.08;;;;;;;;;;5028580;28;20021;-62
2023/03/16 12:36:49;;;;;;;4.28;2.03;;;;;;;;;;5029593;28;20049;-62
2023/03/16 12:39:42;;;;;;;4.10;1.90;;;;;;;;;;5029304;28;20040;-63
2023/03/16 12:42:31;;;;;;;5.88;2.10;;;;;;;;;;5024451;28;20034;-64
2023/03/16 12:45:06;;;;;;;3.58;1.80;;;;;;;;;;5027879;28;20050;-63
2023/03/16 12:47:57;;;;;;;3.85;2.00;;;;;;;;;;5014485;28;20029;-64
2023/03/16 12:50:23;;;;;;;2.95;1.80;;;;;;;;;;5030943;28;20476;-62
2023/03/16 12:52:51;;;;;;;3.55;1.80;;;;;;;;;;5030004;28;20160;-62
2023/03/16 12:55:18;;;;;;;5.32;1.90;;;;;;;;;;5030260;28;20147;-62
2023/03/16 12:57:45;;;;;;;5.43;1.98;;;;;;;;;;5027164;28;20061;-64
2023/03/16 13:00:13;;;;;;;5.82;1.92;;;;;;;;;;5032769;28;20025;-63
2023/03/16 13:02:48;;;;;;;2.50;1.70;;;;;;;;;;5033377;28;20079;-63
2023/03/16 13:05:16;;;;;;;3.78;1.80;;;;;;;;;;5026230;28;20037;-63
2023/03/16 13:07:51;;;;;;;5.38;2.08;;;;;;;;;;5030416;28;20044;-63
2023/03/16 13:10:19;;;;;;;4.60;1.75;;;;;;;;;;5029682;28;20100;-62
2023/03/16 13:12:46;;;;;;;5.20;2.13;;;;;;;;;;5032651;28;20164;-62
2023/03/16 13:15:21;;;;;;;4.07;1.65;;;;;;;;;;5024433;28;20091;-64
2023/03/16 13:18:08;;;;;;;5.07;1.70;;;;;;;;;;5032684;28;20067;-61
2023/03/16 13:20:47;;;;;;;6.00;1.70;;;;;;;;;;5019706;28;20512;-63
2023/03/16 13:23:26;;;;;;;4.18;2.00;;;;;;;;;;5032448;28;20041;-62
2023/03/16 13:26:13;;;;;;;6.20;1.80;;;;;;;;;;5032806;28;20116;-63
2023/03/16 13:28:42;;;;;;;3.60;1.80;;;;;;;;;;5033043;28;20033;-61
2023/03/16 13:31:40;;;;;;;3.08;1.80;;;;;;;;;;5014556;28;20362;-63
2023/03/16 13:34:10;;;;;;;4.18;1.83;;;;;;;;;;5008976;28;20041;-64
2023/03/16 13:36:36;;;;;;;4.85;1.98;;;;;;;;;;5032600;28;20042;-64
2023/03/16 13:39:23;;;;;;;3.35;1.80;;;;;;;;;;5032169;28;20040;-63
2023/03/16 13:42:03;;;;;;;3.92;1.70;;;;;;;;;;5032934;28;20029;-62
2023/03/16 13:44:30;;;;;;;3.75;2.17;;;;;;;;;;5033515;28;20041;-62
2023/03/16 13:46:56;;;;;;;3.83;1.90;;;;;;;;;;5033185;28;20050;-65
2023/03/16 13:49:22;;;;;;;4.40;1.92;;;;;;;;;;5032351;28;20044;-64
2023/03/16 13:51:48;;;;;;;5.38;1.85;;;;;;;;;;5032454;28;20037;-66
2023/03/16 13:54:27;;;;;;;3.38;1.88;;;;;;;;;;5034416;28;20117;-65
2023/03/16 13:56:56;;;;;;;4.80;2.08;;;;;;;;;;5031683;28;20072;-64
2023/03/16 13:59:22;;;;;;;2.78;1.83;;;;;;;;;;5032105;28;20030;-62
2023/03/16 14:01:56;;;;;;;3.92;1.80;;;;;;;;;;5030762;28;20033;-63
2023/03/16 14:04:24;;;;;;;2.85;1.95;;;;;;;;;;5032510;28;20048;-64
2023/03/16 14:07:00;;;;;;;3.70;1.70;;;;;;;;;;5032256;28;20041;-62
2023/03/16 14:09:33;;;;;;;5.28;1.80;;;;;;;;;;5007384;28;20040;-61
2023/03/16 14:11:58;;;;;;;6.18;1.90;;;;;;;;;;5030168;28;20457;-62
2023/03/16 14:14:28;;;;;;;2.83;1.65;;;;;;;;;;5033499;28;20068;-61
2023/03/16 14:17:01;;;;;;;4.45;1.90;;;;;;;;;;5031828;28;20702;-61
2023/03/16 14:19:34;;;;;;;4.22;2.03;;;;;;;;;;5033233;28;20454;-61
2023/03/16 14:22:05;;;;;;;4.13;1.98;;;;;;;;;;5032088;28;20088;-62
2023/03/16 14:24:37;;;;;;;4.70;1.95;;;;;;;;;;5032573;28;20060;-62
2023/03/16 14:27:18;;;;;;;3.35;1.92;;;;;;;;;;5031746;28;20136;-61
2023/03/16 14:29:44;;;;;;;4.28;1.90;;;;;;;;;;5031020;28;20032;-61
2023/03/16 14:32:52;;;;;;;4.65;1.90;;;;;;;;;;5012179;28;20034;-60
2023/03/16 14:35:20;;;;;;;2.22;1.63;;;;;;;;;;4993436;28;20045;-61
2023/03/16 14:37:48;;;;;;;3.75;2.00;;;;;;;;;;5021621;28;20502;-60
2023/03/16 14:40:29;;;;;;;5.72;1.90;;;;;;;;;;5032334;28;20091;-61
2023/03/16 14:42:59;;;;;;;4.63;2.10;;;;;;;;;;5034113;28;20688;-63
2023/03/16 14:45:42;;;;;;;6.80;2.00;;;;;;;;;;5032699;28;20099;-60
2023/03/16 14:48:19;;;;;;;3.63;2.00;;;;;;;;;;5032219;28;20060;-62
2023/03/16 14:50:51;;;;;;;2.72;1.75;;;;;;;;;;5032335;28;20041;-61
2023/03/16 14:53:16;;;;;;;4.00;1.88;;;;;;;;;;5012235;28;20033;-61
2023/03/16 14:55:42;;;;;;;4.53;1.98;;;;;;;;;;5031877;28;20033;-62
2023/03/16 14:58:09;;;;;;;4.30;2.00;;;;;;;;;;5029210;28;20041;-61
2023/03/16 15:00:34;;;;;;;3.28;2.00;;;;;;;;;;5031867;28;20044;-63
2023/03/16 15:03:05;;;;;;;4.18;1.90;;;;;;;;;;5032110;28;20033;-62